sensor_id;sensor_type;location;lat;lon;timestamp;P1;durP1;ratioP1;P2;durP2;ratioP2
8610;SDS011;4343;53.648;10.098;2022-07-04T00:00:44;1.35;;;1.35;;
8610;SDS011;4343;53.648;10.098;2022-07-04T00:03:10;1.67;;;1.58;;
8610;SDS011;4343;53.648;10.098;2022-07-04T00:05:36;1.55;;;1.50;;
8610;SDS011;4343;53.648;10.098;2022-07-04T00:08:02;1.75;;;1.65;;
8610;SDS011;4343;53.648;10.098;2022-07-04T00:10:28;1.55;;;1.45;;
8610;SDS011;4343;53.648;10.098;2022-07-04T00:12:54;1.63;;;1.63;;
8610;SDS011;4343;53.648;10.098;2022-07-04T00:15:20;1.58;;;1.50;;
8610;SDS011;4343;53.648;10.098;2022-07-04T00:17:45;1.80;;;1.70;;
8610;SDS011;4343;53.648;10.098;2022-07-04T00:20:11;2.07;;;1.93;;
8610;SDS011;4343;53.648;10.098;2022-07-04T00:22:37;1.80;;;1.70;;
8610;SDS011;4343;53.648;10.098;2022-07-04T00:25:03;2.10;;;1.70;;
8610;SDS011;4343;53.648;10.098;2022-07-04T00:27:30;1.85;;;1.75;;
8610;SDS011;4343;53.648;10.098;2022-07-04T00:29:55;1.87;;;1.77;;
8610;SDS011;4343;53.648;10.098;2022-07-04T00:32:21;1.57;;;1.57;;
8610;SDS011;4343;53.648;10.098;2022-07-04T00:34:46;2.22;;;1.83;;
8610;SDS011;4343;53.648;10.098;2022-07-04T00:37:12;1.80;;;1.70;;
8610;SDS011;4343;53.648;10.098;2022-07-04T00:39:37;2.03;;;1.93;;
8610;SDS011;4343;53.648;10.098;2022-07-04T00:42:03;1.87;;;1.77;;
8610;SDS011;4343;53.648;10.098;2022-07-04T00:44:30;2.00;;;1.90;;
8610;SDS011;4343;53.648;10.098;2022-07-04T00:46:56;1.80;;;1.70;;
8610;SDS011;4343;53.648;10.098;2022-07-04T00:49:22;2.00;;;1.90;;
8610;SDS011;4343;53.648;10.098;2022-07-04T00:51:48;1.80;;;1.70;;
8610;SDS011;4343;53.648;10.098;2022-07-04T00:54:14;1.97;;;1.87;;
8610;SDS011;4343;53.648;10.098;2022-07-04T00:56:41;2.08;;;1.80;;
8610;SDS011;4343;53.648;10.098;2022-07-04T00:59:08;1.77;;;1.67;;
8610;SDS011;4343;53.648;10.098;2022-07-04T01:01:34;1.87;;;1.77;;
8610;SDS011;4343;53.648;10.098;2022-07-04T01:04:01;2.35;;;1.98;;
8610;SDS011;4343;53.648;10.098;2022-07-04T01:06:29;2.20;;;1.75;;
8610;SDS011;4343;53.648;10.098;2022-07-04T01:08:54;2.13;;;1.92;;
8610;SDS011;4343;53.648;10.098;2022-07-04T01:11:20;2.40;;;2.20;;
8610;SDS011;4343;53.648;10.098;2022-07-04T01:13:46;2.60;;;1.93;;
8610;SDS011;4343;53.648;10.098;2022-07-04T01:16:11;2.60;;;2.40;;
8610;SDS011;4343;53.648;10.098;2022-07-04T01:18:38;2.40;;;2.20;;
8610;SDS011;4343;53.648;10.098;2022-07-04T01:21:05;2.67;;;2.47;;
8610;SDS011;4343;53.648;10.098;2022-07-04T01:23:31;2.95;;;2.20;;
8610;SDS011;4343;53.648;10.098;2022-07-04T01:25:57;2.80;;;2.60;;
8610;SDS011;4343;53.648;10.098;2022-07-04T01:28:23;3.03;;;2.83;;
8610;SDS011;4343;53.648;10.098;2022-07-04T01:30:50;3.90;;;2.75;;
8610;SDS011;4343;53.648;10.098;2022-07-04T01:33:16;3.40;;;2.70;;
8610;SDS011;4343;53.648;10.098;2022-07-04T01:35:44;2.90;;;2.70;;
8610;SDS011;4343;53.648;10.098;2022-07-04T01:38:10;3.13;;;2.92;;
8610;SDS011;4343;53.648;10.098;2022-07-04T01:40:36;3.00;;;2.80;;
8610;SDS011;4343;53.648;10.098;2022-07-04T01:43:01;3.73;;;3.43;;
8610;SDS011;4343;53.648;10.098;2022-07-04T01:45:27;3.33;;;3.03;;
8610;SDS011;4343;53.648;10.098;2022-07-04T01:47:53;3.35;;;3.05;;
8610;SDS011;4343;53.648;10.098;2022-07-04T01:50:19;3.45;;;3.20;;
8610;SDS011;4343;53.648;10.098;2022-07-04T01:52:45;3.73;;;3.37;;
8610;SDS011;4343;53.648;10.098;2022-07-04T01:55:10;4.15;;;3.63;;
8610;SDS011;4343;53.648;10.098;2022-07-04T01:57:36;3.70;;;3.50;;
8610;SDS011;4343;53.648;10.098;2022-07-04T02:00:06;3.80;;;3.50;;
8610;SDS011;4343;53.648;10.098;2022-07-04T02:02:52;4.97;;;4.00;;
8610;SDS011;4343;53.648;10.098;2022-07-04T02:05:18;4.07;;;3.75;;
8610;SDS011;4343;53.648;10.098;2022-07-04T02:07:43;4.43;;;4.10;;
8610;SDS011;4343;53.648;10.098;2022-07-04T02:10:09;4.15;;;3.85;;
8610;SDS011;4343;53.648;10.098;2022-07-04T02:12:35;3.78;;;3.58;;
8610;SDS011;4343;53.648;10.098;2022-07-04T02:15:20;4.57;;;4.20;;
8610;SDS011;4343;53.648;10.098;2022-07-04T02:17:45;4.67;;;4.37;;
8610;SDS011;4343;53.648;10.098;2022-07-04T02:20:11;4.57;;;4.20;;
8610;SDS011;4343;53.648;10.098;2022-07-04T02:22:37;4.85;;;4.45;;
8610;SDS011;4343;53.648;10.098;2022-07-04T02:25:03;4.73;;;4.37;;
8610;SDS011;4343;53.648;10.098;2022-07-04T02:27:28;4.27;;;3.90;;
8610;SDS011;4343;53.648;10.098;2022-07-04T02:29:54;4.82;;;4.47;;
8610;SDS011;4343;53.648;10.098;2022-07-04T02:32:19;4.20;;;4.00;;
8610;SDS011;4343;53.648;10.098;2022-07-04T02:34:45;4.40;;;4.10;;
8610;SDS011;4343;53.648;10.098;2022-07-04T02:37:11;4.70;;;4.40;;
8610;SDS011;4343;53.648;10.098;2022-07-04T02:39:36;4.00;;;3.80;;
8610;SDS011;4343;53.648;10.098;2022-07-04T02:42:02;4.13;;;3.93;;
8610;SDS011;4343;53.648;10.098;2022-07-04T02:44:27;4.73;;;4.43;;
8610;SDS011;4343;53.648;10.098;2022-07-04T02:46:53;5.03;;;4.63;;
8610;SDS011;4343;53.648;10.098;2022-07-04T02:49:18;4.28;;;3.97;;
8610;SDS011;4343;53.648;10.098;2022-07-04T02:51:44;4.53;;;4.22;;
8610;SDS011;4343;53.648;10.098;2022-07-04T02:54:10;4.30;;;4.00;;
8610;SDS011;4343;53.648;10.098;2022-07-04T02:56:35;4.53;;;3.97;;
8610;SDS011;4343;53.648;10.098;2022-07-04T02:59:01;3.92;;;3.72;;
8610;SDS011;4343;53.648;10.098;2022-07-04T03:01:26;4.75;;;4.45;;
8610;SDS011;4343;53.648;10.098;2022-07-04T03:03:52;4.65;;;4.35;;
8610;SDS011;4343;53.648;10.098;2022-07-04T03:06:17;5.55;;;5.15;;
8610;SDS011;4343;53.648;10.098;2022-07-04T03:08:43;5.10;;;4.50;;
8610;SDS011;4343;53.648;10.098;2022-07-04T03:11:08;5.28;;;4.57;;
8610;SDS011;4343;53.648;10.098;2022-07-04T03:13:35;4.45;;;4.07;;
8610;SDS011;4343;53.648;10.098;2022-07-04T03:16:01;3.97;;;3.78;;
8610;SDS011;4343;53.648;10.098;2022-07-04T03:18:26;5.00;;;4.50;;
8610;SDS011;4343;53.648;10.098;2022-07-04T03:20:52;4.43;;;4.13;;
8610;SDS011;4343;53.648;10.098;2022-07-04T03:23:17;4.15;;;3.95;;
8610;SDS011;4343;53.648;10.098;2022-07-04T03:25:43;4.47;;;4.18;;
8610;SDS011;4343;53.648;10.098;2022-07-04T03:28:09;4.82;;;4.43;;
8610;SDS011;4343;53.648;10.098;2022-07-04T03:30:34;4.53;;;4.20;;
8610;SDS011;4343;53.648;10.098;2022-07-04T03:33:01;4.43;;;4.03;;
8610;SDS011;4343;53.648;10.098;2022-07-04T03:35:27;4.10;;;3.80;;
8610;SDS011;4343;53.648;10.098;2022-07-04T03:37:53;4.00;;;3.75;;
8610;SDS011;4343;53.648;10.098;2022-07-04T03:40:19;3.83;;;3.42;;
8610;SDS011;4343;53.648;10.098;2022-07-04T03:42:45;3.45;;;3.35;;
8610;SDS011;4343;53.648;10.098;2022-07-04T03:45:10;3.03;;;2.83;;
8610;SDS011;4343;53.648;10.098;2022-07-04T03:47:36;3.67;;;3.38;;
8610;SDS011;4343;53.648;10.098;2022-07-04T03:50:02;3.47;;;3.28;;
8610;SDS011;4343;53.648;10.098;2022-07-04T03:52:28;3.70;;;3.45;;
8610;SDS011;4343;53.648;10.098;2022-07-04T03:54:54;3.85;;;3.50;;
8610;SDS011;4343;53.648;10.098;2022-07-04T03:57:19;6.35;;;4.00;;
8610;SDS011;4343;53.648;10.098;2022-07-04T03:59:45;4.43;;;4.03;;
8610;SDS011;4343;53.648;10.098;2022-07-04T04:02:10;4.70;;;3.70;;
8610;SDS011;4343;53.648;10.098;2022-07-04T04:04:36;4.82;;;4.00;;
8610;SDS011;4343;53.648;10.098;2022-07-04T04:07:20;4.22;;;3.83;;
8610;SDS011;4343;53.648;10.098;2022-07-04T04:09:46;4.03;;;3.60;;
8610;SDS011;4343;53.648;10.098;2022-07-04T04:12:12;4.47;;;4.20;;
8610;SDS011;4343;53.648;10.098;2022-07-04T04:14:37;4.07;;;3.80;;
8610;SDS011;4343;53.648;10.098;2022-07-04T04:17:03;3.90;;;3.70;;
8610;SDS011;4343;53.648;10.098;2022-07-04T04:19:29;4.32;;;4.03;;
8610;SDS011;4343;53.648;10.098;2022-07-04T04:21:54;4.43;;;4.03;;
8610;SDS011;4343;53.648;10.098;2022-07-04T04:24:20;4.78;;;4.38;;
8610;SDS011;4343;53.648;10.098;2022-07-04T04:26:45;3.88;;;3.58;;
8610;SDS011;4343;53.648;10.098;2022-07-04T04:29:11;4.28;;;4.00;;
8610;SDS011;4343;53.648;10.098;2022-07-04T04:31:36;3.80;;;3.60;;
8610;SDS011;4343;53.648;10.098;2022-07-04T04:34:02;4.53;;;4.13;;
8610;SDS011;4343;53.648;10.098;2022-07-04T04:36:27;4.57;;;4.20;;
8610;SDS011;4343;53.648;10.098;2022-07-04T04:38:53;4.47;;;4.10;;
8610;SDS011;4343;53.648;10.098;2022-07-04T04:41:18;4.10;;;3.90;;
8610;SDS011;4343;53.648;10.098;2022-07-04T04:43:44;4.50;;;4.20;;
8610;SDS011;4343;53.648;10.098;2022-07-04T04:46:09;4.60;;;4.20;;
8610;SDS011;4343;53.648;10.098;2022-07-04T04:48:35;4.78;;;4.07;;
8610;SDS011;4343;53.648;10.098;2022-07-04T04:51:00;3.70;;;3.50;;
8610;SDS011;4343;53.648;10.098;2022-07-04T04:53:26;4.47;;;4.10;;
8610;SDS011;4343;53.648;10.098;2022-07-04T04:55:52;4.53;;;4.22;;
8610;SDS011;4343;53.648;10.098;2022-07-04T04:58:22;4.53;;;4.18;;
8610;SDS011;4343;53.648;10.098;2022-07-04T05:00:47;4.55;;;3.88;;
8610;SDS011;4343;53.648;10.098;2022-07-04T05:03:14;5.25;;;4.15;;
8610;SDS011;4343;53.648;10.098;2022-07-04T05:05:40;3.97;;;3.78;;
8610;SDS011;4343;53.648;10.098;2022-07-04T05:08:06;4.40;;;4.00;;
8610;SDS011;4343;53.648;10.098;2022-07-04T05:10:32;3.75;;;3.53;;
8610;SDS011;4343;53.648;10.098;2022-07-04T05:12:57;3.80;;;3.50;;
8610;SDS011;4343;53.648;10.098;2022-07-04T05:15:23;3.30;;;3.10;;
8610;SDS011;4343;53.648;10.098;2022-07-04T05:17:49;3.15;;;2.95;;
8610;SDS011;4343;53.648;10.098;2022-07-04T05:20:15;5.13;;;3.67;;
8610;SDS011;4343;53.648;10.098;2022-07-04T05:22:41;2.85;;;2.70;;
8610;SDS011;4343;53.648;10.098;2022-07-04T05:25:06;3.05;;;2.90;;
8610;SDS011;4343;53.648;10.098;2022-07-04T05:27:32;3.88;;;2.80;;
8610;SDS011;4343;53.648;10.098;2022-07-04T05:29:58;3.42;;;3.13;;
8610;SDS011;4343;53.648;10.098;2022-07-04T05:32:24;2.97;;;2.30;;
8610;SDS011;4343;53.648;10.098;2022-07-04T05:44:33;2.20;;;2.10;;
8610;SDS011;4343;53.648;10.098;2022-07-04T05:46:58;2.40;;;2.20;;
8610;SDS011;4343;53.648;10.098;2022-07-04T05:49:24;1.90;;;1.80;;
8610;SDS011;4343;53.648;10.098;2022-07-04T05:51:49;1.97;;;1.83;;
8610;SDS011;4343;53.648;10.098;2022-07-04T05:54:15;2.53;;;1.95;;
8610;SDS011;4343;53.648;10.098;2022-07-04T05:56:40;2.28;;;1.90;;
8610;SDS011;4343;53.648;10.098;2022-07-04T05:59:07;1.65;;;1.55;;
8610;SDS011;4343;53.648;10.098;2022-07-04T06:01:34;1.70;;;1.60;;
8610;SDS011;4343;53.648;10.098;2022-07-04T06:03:59;1.60;;;1.50;;
8610;SDS011;4343;53.648;10.098;2022-07-04T06:06:25;2.47;;;1.40;;
8610;SDS011;4343;53.648;10.098;2022-07-04T06:08:51;1.40;;;1.30;;
8610;SDS011;4343;53.648;10.098;2022-07-04T06:11:16;2.15;;;1.50;;
8610;SDS011;4343;53.648;10.098;2022-07-04T06:13:43;1.98;;;1.45;;
8610;SDS011;4343;53.648;10.098;2022-07-04T06:16:08;2.15;;;1.20;;
8610;SDS011;4343;53.648;10.098;2022-07-04T06:18:34;1.30;;;1.20;;
8610;SDS011;4343;53.648;10.098;2022-07-04T06:20:59;1.95;;;1.10;;
8610;SDS011;4343;53.648;10.098;2022-07-04T06:23:25;1.13;;;1.10;;
8610;SDS011;4343;53.648;10.098;2022-07-04T06:25:51;1.48;;;1.30;;
8610;SDS011;4343;53.648;10.098;2022-07-04T06:28:16;0.98;;;0.98;;
8610;SDS011;4343;53.648;10.098;2022-07-04T06:30:42;2.58;;;1.48;;
8610;SDS011;4343;53.648;10.098;2022-07-04T06:33:07;1.25;;;1.20;;
8610;SDS011;4343;53.648;10.098;2022-07-04T06:35:33;2.42;;;1.35;;
8610;SDS011;4343;53.648;10.098;2022-07-04T06:38:21;1.10;;;1.00;;
8610;SDS011;4343;53.648;10.098;2022-07-04T06:40:48;1.30;;;1.20;;
8610;SDS011;4343;53.648;10.098;2022-07-04T06:43:15;1.77;;;1.08;;
8610;SDS011;4343;53.648;10.098;2022-07-04T06:45:41;5.10;;;1.20;;
8610;SDS011;4343;53.648;10.098;2022-07-04T06:48:07;1.95;;;1.42;;
8610;SDS011;4343;53.648;10.098;2022-07-04T06:50:33;2.28;;;1.73;;
8610;SDS011;4343;53.648;10.098;2022-07-04T06:52:59;1.75;;;1.10;;
8610;SDS011;4343;53.648;10.098;2022-07-04T06:55:26;1.67;;;1.58;;
8610;SDS011;4343;53.648;10.098;2022-07-04T06:57:52;1.50;;;1.40;;
8610;SDS011;4343;53.648;10.098;2022-07-04T07:00:17;1.50;;;1.40;;
8610;SDS011;4343;53.648;10.098;2022-07-04T07:02:43;1.67;;;1.20;;
8610;SDS011;4343;53.648;10.098;2022-07-04T07:05:08;3.03;;;1.73;;
8610;SDS011;4343;53.648;10.098;2022-07-04T07:07:34;1.50;;;0.95;;
8610;SDS011;4343;53.648;10.098;2022-07-04T07:09:59;1.77;;;1.40;;
8610;SDS011;4343;53.648;10.098;2022-07-04T07:12:26;2.10;;;1.30;;
8610;SDS011;4343;53.648;10.098;2022-07-04T07:14:52;2.40;;;1.33;;
8610;SDS011;4343;53.648;10.098;2022-07-04T07:17:17;1.50;;;1.40;;
8610;SDS011;4343;53.648;10.098;2022-07-04T07:19:44;2.10;;;1.38;;
8610;SDS011;4343;53.648;10.098;2022-07-04T07:22:10;1.33;;;1.23;;
8610;SDS011;4343;53.648;10.098;2022-07-04T07:24:36;2.15;;;1.30;;
8610;SDS011;4343;53.648;10.098;2022-07-04T07:27:02;1.45;;;1.15;;
8610;SDS011;4343;53.648;10.098;2022-07-04T07:29:27;2.35;;;1.40;;
8610;SDS011;4343;53.648;10.098;2022-07-04T07:31:53;1.52;;;1.25;;
8610;SDS011;4343;53.648;10.098;2022-07-04T07:34:19;1.20;;;1.20;;
8610;SDS011;4343;53.648;10.098;2022-07-04T07:36:44;1.90;;;1.30;;
8610;SDS011;4343;53.648;10.098;2022-07-04T07:39:10;2.40;;;1.20;;
8610;SDS011;4343;53.648;10.098;2022-07-04T07:41:35;1.40;;;1.13;;
8610;SDS011;4343;53.648;10.098;2022-07-04T07:44:01;1.45;;;1.20;;
8610;SDS011;4343;53.648;10.098;2022-07-04T07:46:26;1.33;;;1.23;;
8610;SDS011;4343;53.648;10.098;2022-07-04T07:48:52;1.75;;;1.10;;
8610;SDS011;4343;53.648;10.098;2022-07-04T07:51:17;2.30;;;1.30;;
8610;SDS011;4343;53.648;10.098;2022-07-04T07:53:43;1.52;;;1.27;;
8610;SDS011;4343;53.648;10.098;2022-07-04T07:56:09;1.98;;;1.30;;
8610;SDS011;4343;53.648;10.098;2022-07-04T07:58:34;1.27;;;1.23;;
8610;SDS011;4343;53.648;10.098;2022-07-04T08:01:00;1.02;;;1.02;;
8610;SDS011;4343;53.648;10.098;2022-07-04T08:03:27;1.55;;;1.30;;
8610;SDS011;4343;53.648;10.098;2022-07-04T08:06:12;2.25;;;1.63;;
8610;SDS011;4343;53.648;10.098;2022-07-04T08:08:38;1.20;;;1.10;;
8610;SDS011;4343;53.648;10.098;2022-07-04T08:11:04;1.77;;;1.35;;
8610;SDS011;4343;53.648;10.098;2022-07-04T08:13:30;0.90;;;0.90;;
8610;SDS011;4343;53.648;10.098;2022-07-04T08:15:56;1.10;;;1.00;;
8610;SDS011;4343;53.648;10.098;2022-07-04T08:18:22;0.90;;;0.90;;
8610;SDS011;4343;53.648;10.098;2022-07-04T08:20:48;1.20;;;1.15;;
8610;SDS011;4343;53.648;10.098;2022-07-04T08:23:14;2.00;;;1.10;;
8610;SDS011;4343;53.648;10.098;2022-07-04T08:25:40;1.70;;;0.98;;
8610;SDS011;4343;53.648;10.098;2022-07-04T08:28:05;1.25;;;1.08;;
8610;SDS011;4343;53.648;10.098;2022-07-04T08:30:31;1.55;;;1.00;;
8610;SDS011;4343;53.648;10.098;2022-07-04T08:32:57;1.08;;;0.90;;
8610;SDS011;4343;53.648;10.098;2022-07-04T08:35:22;1.13;;;1.00;;
8610;SDS011;4343;53.648;10.098;2022-07-04T08:37:48;1.63;;;1.20;;
8610;SDS011;4343;53.648;10.098;2022-07-04T08:40:18;1.00;;;1.00;;
8610;SDS011;4343;53.648;10.098;2022-07-04T08:42:47;1.10;;;0.93;;
8610;SDS011;4343;53.648;10.098;2022-07-04T08:45:13;1.08;;;1.00;;
8610;SDS011;4343;53.648;10.098;2022-07-04T08:47:40;1.73;;;1.05;;
8610;SDS011;4343;53.648;10.098;2022-07-04T08:50:11;0.98;;;0.90;;
8610;SDS011;4343;53.648;10.098;2022-07-04T08:52:43;1.30;;;1.02;;
8610;SDS011;4343;53.648;10.098;2022-07-04T08:55:12;1.05;;;0.80;;
8610;SDS011;4343;53.648;10.098;2022-07-04T08:57:57;0.82;;;0.82;;
8610;SDS011;4343;53.648;10.098;2022-07-04T09:00:41;1.02;;;1.00;;
8610;SDS011;4343;53.648;10.098;2022-07-04T09:03:07;1.20;;;1.00;;
8610;SDS011;4343;53.648;10.098;2022-07-04T09:05:34;1.75;;;0.80;;
8610;SDS011;4343;53.648;10.098;2022-07-04T09:08:00;1.00;;;1.00;;
8610;SDS011;4343;53.648;10.098;2022-07-04T09:10:27;1.13;;;0.90;;
8610;SDS011;4343;53.648;10.098;2022-07-04T09:12:53;0.98;;;0.98;;
8610;SDS011;4343;53.648;10.098;2022-07-04T09:15:19;1.10;;;1.02;;
8610;SDS011;4343;53.648;10.098;2022-07-04T09:17:46;0.88;;;0.88;;
8610;SDS011;4343;53.648;10.098;2022-07-04T09:22:39;0.82;;;0.82;;
8610;SDS011;4343;53.648;10.098;2022-07-04T09:25:05;1.40;;;0.90;;
8610;SDS011;4343;53.648;10.098;2022-07-04T09:27:32;1.83;;;0.90;;
8610;SDS011;4343;53.648;10.098;2022-07-04T09:30:03;0.90;;;0.90;;
8610;SDS011;4343;53.648;10.098;2022-07-04T09:32:48;1.35;;;1.00;;
8610;SDS011;4343;53.648;10.098;2022-07-04T09:35:18;1.42;;;0.90;;
8610;SDS011;4343;53.648;10.098;2022-07-04T09:37:46;0.80;;;0.80;;
8610;SDS011;4343;53.648;10.098;2022-07-04T09:40:33;2.58;;;0.90;;
8610;SDS011;4343;53.648;10.098;2022-07-04T09:43:23;2.30;;;1.20;;
8610;SDS011;4343;53.648;10.098;2022-07-04T09:45:53;0.98;;;0.98;;
8610;SDS011;4343;53.648;10.098;2022-07-04T09:48:19;1.17;;;1.00;;
8610;SDS011;4343;53.648;10.098;2022-07-04T09:50:45;0.80;;;0.80;;
8610;SDS011;4343;53.648;10.098;2022-07-04T09:53:11;2.50;;;1.30;;
8610;SDS011;4343;53.648;10.098;2022-07-04T09:55:37;1.80;;;1.20;;
8610;SDS011;4343;53.648;10.098;2022-07-04T09:58:04;1.10;;;1.10;;
8610;SDS011;4343;53.648;10.098;2022-07-04T10:00:33;1.35;;;0.93;;
8610;SDS011;4343;53.648;10.098;2022-07-04T10:08:29;1.13;;;1.13;;
8610;SDS011;4343;53.648;10.098;2022-07-04T10:10:56;0.80;;;0.80;;
8610;SDS011;4343;53.648;10.098;2022-07-04T10:13:23;0.70;;;0.70;;
8610;SDS011;4343;53.648;10.098;2022-07-04T10:15:48;0.80;;;0.80;;
8610;SDS011;4343;53.648;10.098;2022-07-04T10:18:17;1.50;;;0.80;;
8610;SDS011;4343;53.648;10.098;2022-07-04T10:20:44;0.80;;;0.80;;
8610;SDS011;4343;53.648;10.098;2022-07-04T10:23:11;1.13;;;1.00;;
8610;SDS011;4343;53.648;10.098;2022-07-04T10:25:37;0.70;;;0.70;;
8610;SDS011;4343;53.648;10.098;2022-07-04T10:28:03;2.15;;;1.27;;
8610;SDS011;4343;53.648;10.098;2022-07-04T10:30:29;1.50;;;0.95;;
8610;SDS011;4343;53.648;10.098;2022-07-04T10:33:00;1.00;;;0.90;;
8610;SDS011;4343;53.648;10.098;2022-07-04T10:38:14;0.98;;;0.98;;
8610;SDS011;4343;53.648;10.098;2022-07-04T10:48:31;0.85;;;0.85;;
8610;SDS011;4343;53.648;10.098;2022-07-04T10:51:01;1.08;;;0.98;;
8610;SDS011;4343;53.648;10.098;2022-07-04T10:53:28;1.48;;;1.38;;
8610;SDS011;4343;53.648;10.098;2022-07-04T10:58:45;0.93;;;0.80;;
8610;SDS011;4343;53.648;10.098;2022-07-04T11:01:14;1.15;;;1.08;;
8610;SDS011;4343;53.648;10.098;2022-07-04T11:03:45;0.85;;;0.73;;
8610;SDS011;4343;53.648;10.098;2022-07-04T11:06:49;1.50;;;0.80;;
8610;SDS011;4343;53.648;10.098;2022-07-04T11:09:22;0.70;;;0.70;;
8610;SDS011;4343;53.648;10.098;2022-07-04T11:17:07;0.80;;;0.80;;
8610;SDS011;4343;53.648;10.098;2022-07-04T11:19:59;2.72;;;0.80;;
8610;SDS011;4343;53.648;10.098;2022-07-04T11:22:25;0.88;;;0.80;;
8610;SDS011;4343;53.648;10.098;2022-07-04T11:24:52;0.90;;;0.90;;
8610;SDS011;4343;53.648;10.098;2022-07-04T11:27:20;0.57;;;0.57;;
8610;SDS011;4343;53.648;10.098;2022-07-04T11:29:53;1.40;;;0.90;;
8610;SDS011;4343;53.648;10.098;2022-07-04T11:32:20;0.88;;;0.88;;
8610;SDS011;4343;53.648;10.098;2022-07-04T11:34:54;0.80;;;0.80;;
8610;SDS011;4343;53.648;10.098;2022-07-04T11:37:20;0.80;;;0.80;;
8610;SDS011;4343;53.648;10.098;2022-07-04T11:39:49;0.45;;;0.45;;
8610;SDS011;4343;53.648;10.098;2022-07-04T11:45:48;1.02;;;1.00;;
8610;SDS011;4343;53.648;10.098;2022-07-04T11:48:21;0.75;;;0.75;;
8610;SDS011;4343;53.648;10.098;2022-07-04T11:50:46;0.63;;;0.63;;
8610;SDS011;4343;53.648;10.098;2022-07-04T11:53:12;0.80;;;0.80;;
8610;SDS011;4343;53.648;10.098;2022-07-04T11:55:37;0.55;;;0.55;;
8610;SDS011;4343;53.648;10.098;2022-07-04T11:58:03;0.93;;;0.93;;
8610;SDS011;4343;53.648;10.098;2022-07-04T12:00:28;0.77;;;0.77;;
8610;SDS011;4343;53.648;10.098;2022-07-04T12:03:00;1.30;;;0.90;;
8610;SDS011;4343;53.648;10.098;2022-07-04T12:05:27;1.23;;;1.13;;
8610;SDS011;4343;53.648;10.098;2022-07-04T12:07:52;2.60;;;1.10;;
8610;SDS011;4343;53.648;10.098;2022-07-04T12:10:21;1.00;;;0.90;;
8610;SDS011;4343;53.648;10.098;2022-07-04T12:12:52;0.93;;;0.93;;
8610;SDS011;4343;53.648;10.098;2022-07-04T12:15:23;0.93;;;0.90;;
8610;SDS011;4343;53.648;10.098;2022-07-04T12:17:51;1.25;;;1.10;;
8610;SDS011;4343;53.648;10.098;2022-07-04T12:20:18;0.90;;;0.90;;
8610;SDS011;4343;53.648;10.098;2022-07-04T12:22:48;1.35;;;1.05;;
8610;SDS011;4343;53.648;10.098;2022-07-04T12:25:20;0.77;;;0.70;;
8610;SDS011;4343;53.648;10.098;2022-07-04T12:28:09;0.90;;;0.90;;
8610;SDS011;4343;53.648;10.098;2022-07-04T12:30:38;1.80;;;1.10;;
8610;SDS011;4343;53.648;10.098;2022-07-04T12:33:05;1.05;;;0.95;;
8610;SDS011;4343;53.648;10.098;2022-07-04T12:43:43;0.98;;;0.73;;
8610;SDS011;4343;53.648;10.098;2022-07-04T12:46:26;2.10;;;0.93;;
8610;SDS011;4343;53.648;10.098;2022-07-04T12:48:57;2.08;;;1.00;;
8610;SDS011;4343;53.648;10.098;2022-07-04T12:51:24;0.70;;;0.70;;
8610;SDS011;4343;53.648;10.098;2022-07-04T12:53:52;1.38;;;1.17;;
8610;SDS011;4343;53.648;10.098;2022-07-04T12:58:57;0.98;;;0.90;;
8610;SDS011;4343;53.648;10.098;2022-07-04T13:01:24;1.00;;;1.00;;
8610;SDS011;4343;53.648;10.098;2022-07-04T13:03:49;1.33;;;1.10;;
8610;SDS011;4343;53.648;10.098;2022-07-04T13:06:15;1.20;;;1.10;;
8610;SDS011;4343;53.648;10.098;2022-07-04T13:08:41;0.90;;;0.90;;
8610;SDS011;4343;53.648;10.098;2022-07-04T13:11:06;1.15;;;1.00;;
8610;SDS011;4343;53.648;10.098;2022-07-04T13:13:50;0.90;;;0.90;;
8610;SDS011;4343;53.648;10.098;2022-07-04T13:16:16;1.17;;;1.00;;
8610;SDS011;4343;53.648;10.098;2022-07-04T13:18:41;0.90;;;0.90;;
8610;SDS011;4343;53.648;10.098;2022-07-04T13:21:07;0.70;;;0.70;;
8610;SDS011;4343;53.648;10.098;2022-07-04T13:23:32;0.90;;;0.90;;
8610;SDS011;4343;53.648;10.098;2022-07-04T13:25:58;0.98;;;0.98;;
8610;SDS011;4343;53.648;10.098;2022-07-04T13:28:23;1.30;;;1.20;;
8610;SDS011;4343;53.648;10.098;2022-07-04T13:30:49;0.80;;;0.80;;
8610;SDS011;4343;53.648;10.098;2022-07-04T13:33:14;1.13;;;0.90;;
8610;SDS011;4343;53.648;10.098;2022-07-04T13:35:40;2.50;;;1.10;;
8610;SDS011;4343;53.648;10.098;2022-07-04T13:38:06;3.40;;;1.27;;
8610;SDS011;4343;53.648;10.098;2022-07-04T13:40:32;0.90;;;0.90;;
8610;SDS011;4343;53.648;10.098;2022-07-04T13:42:58;0.93;;;0.93;;
8610;SDS011;4343;53.648;10.098;2022-07-04T13:45:23;1.08;;;1.08;;
8610;SDS011;4343;53.648;10.098;2022-07-04T13:47:50;1.00;;;1.00;;
8610;SDS011;4343;53.648;10.098;2022-07-04T13:50:16;1.00;;;1.00;;
8610;SDS011;4343;53.648;10.098;2022-07-04T13:52:42;1.52;;;1.20;;
8610;SDS011;4343;53.648;10.098;2022-07-04T13:55:09;1.20;;;1.15;;
8610;SDS011;4343;53.648;10.098;2022-07-04T13:57:35;1.02;;;1.02;;
8610;SDS011;4343;53.648;10.098;2022-07-04T14:00:00;1.30;;;1.30;;
8610;SDS011;4343;53.648;10.098;2022-07-04T14:02:26;0.80;;;0.80;;
8610;SDS011;4343;53.648;10.098;2022-07-04T14:04:52;1.35;;;1.08;;
8610;SDS011;4343;53.648;10.098;2022-07-04T14:07:17;1.02;;;0.98;;
8610;SDS011;4343;53.648;10.098;2022-07-04T14:09:43;2.13;;;1.42;;
8610;SDS011;4343;53.648;10.098;2022-07-04T14:12:08;1.00;;;0.93;;
8610;SDS011;4343;53.648;10.098;2022-07-04T14:14:34;1.23;;;1.23;;
8610;SDS011;4343;53.648;10.098;2022-07-04T14:17:00;1.88;;;1.45;;
8610;SDS011;4343;53.648;10.098;2022-07-04T14:19:25;1.83;;;1.20;;
8610;SDS011;4343;53.648;10.098;2022-07-04T14:21:51;1.20;;;1.10;;
8610;SDS011;4343;53.648;10.098;2022-07-04T14:24:17;2.42;;;1.20;;
8610;SDS011;4343;53.648;10.098;2022-07-04T14:26:43;1.52;;;1.10;;
8610;SDS011;4343;53.648;10.098;2022-07-04T14:29:09;1.92;;;1.20;;
8610;SDS011;4343;53.648;10.098;2022-07-04T14:31:34;3.30;;;1.33;;
8610;SDS011;4343;53.648;10.098;2022-07-04T14:34:00;1.85;;;1.20;;
8610;SDS011;4343;53.648;10.098;2022-07-04T14:36:26;1.70;;;1.30;;
8610;SDS011;4343;53.648;10.098;2022-07-04T14:38:51;1.48;;;1.38;;
8610;SDS011;4343;53.648;10.098;2022-07-04T14:41:17;3.55;;;1.70;;
8610;SDS011;4343;53.648;10.098;2022-07-04T14:43:43;1.45;;;1.10;;
8610;SDS011;4343;53.648;10.098;2022-07-04T14:46:09;1.05;;;1.00;;
8610;SDS011;4343;53.648;10.098;2022-07-04T14:48:36;1.50;;;1.23;;
8610;SDS011;4343;53.648;10.098;2022-07-04T14:51:02;1.88;;;1.20;;
8610;SDS011;4343;53.648;10.098;2022-07-04T14:53:28;1.25;;;1.15;;
8610;SDS011;4343;53.648;10.098;2022-07-04T14:55:54;1.05;;;0.95;;
8610;SDS011;4343;53.648;10.098;2022-07-04T14:58:19;1.70;;;1.60;;
8610;SDS011;4343;53.648;10.098;2022-07-04T15:00:45;1.23;;;1.20;;
8610;SDS011;4343;53.648;10.098;2022-07-04T15:03:11;1.13;;;1.02;;
8610;SDS011;4343;53.648;10.098;2022-07-04T15:05:36;2.92;;;1.40;;
8610;SDS011;4343;53.648;10.098;2022-07-04T15:08:02;1.30;;;1.20;;
8610;SDS011;4343;53.648;10.098;2022-07-04T15:10:28;2.13;;;1.40;;
8610;SDS011;4343;53.648;10.098;2022-07-04T15:12:53;0.95;;;0.95;;
8610;SDS011;4343;53.648;10.098;2022-07-04T15:15:19;1.10;;;1.10;;
8610;SDS011;4343;53.648;10.098;2022-07-04T15:17:47;1.38;;;0.85;;
8610;SDS011;4343;53.648;10.098;2022-07-04T15:20:13;0.90;;;0.90;;
8610;SDS011;4343;53.648;10.098;2022-07-04T15:22:58;1.48;;;1.38;;
8610;SDS011;4343;53.648;10.098;2022-07-04T15:25:42;1.58;;;1.33;;
8610;SDS011;4343;53.648;10.098;2022-07-04T15:28:07;1.45;;;1.35;;
8610;SDS011;4343;53.648;10.098;2022-07-04T15:30:33;1.35;;;1.25;;
8610;SDS011;4343;53.648;10.098;2022-07-04T15:32:58;2.10;;;1.20;;
8610;SDS011;4343;53.648;10.098;2022-07-04T15:35:24;1.23;;;1.10;;
8610;SDS011;4343;53.648;10.098;2022-07-04T15:37:50;1.00;;;1.00;;
8610;SDS011;4343;53.648;10.098;2022-07-04T15:40:16;1.27;;;1.13;;
8610;SDS011;4343;53.648;10.098;2022-07-04T15:42:41;1.38;;;1.00;;
8610;SDS011;4343;53.648;10.098;2022-07-04T15:45:07;1.25;;;1.25;;
8610;SDS011;4343;53.648;10.098;2022-07-04T15:47:33;2.63;;;1.20;;
8610;SDS011;4343;53.648;10.098;2022-07-04T15:49:59;1.38;;;1.27;;